Time;durP1;ratioP1;P1;durP2;ratioP2;P2;SDS_P1;SDS_P2;PMS_P1;PMS_P2;Temp;Humidity;BMP_temperature;BMP_pressure;BME280_temperature;BME280_humidity;BME280_pressure;Samples;Min_cycle;Max_cycle;Signal;HPM_P1;HPM_P2
2022/06/16 06:52:37;;;;;;;;;;;23.30;93.60;;;;;;5908559;22;19922;-79
2022/06/16 06:55:04;;;;;;;;;;;23.20;93.60;;;;;;4997903;28;19926;-78
2022/06/16 06:57:31;;;;;;;;;;;23.20;93.70;;;;;;4998934;28;19969;-79
2022/06/16 06:59:58;;;;;;;;;;;23.20;93.80;;;;;;5000772;28;20365;-79
2022/06/16 07:02:42;;;;;;;;;;;23.20;93.80;;;;;;4999789;28;20345;-79
2022/06/16 07:05:09;;;;;;;;;;;23.20;93.90;;;;;;4998851;28;20024;-76
2022/06/16 07:07:37;;;;;;;;;;;23.30;94.10;;;;;;5022615;23;19928;-84
2022/06/16 07:10:05;;;;;;;;;;;23.30;94.10;;;;;;5003526;28;19961;-82
2022/06/16 07:12:32;;;;;;;;;;;23.30;94.20;;;;;;5004929;28;20369;-81
2022/06/16 07:14:59;;;;;;;;;;;23.30;94.30;;;;;;5005495;28;19976;-81
2022/06/16 07:17:25;;;;;;;;;;;23.30;94.40;;;;;;5000494;28;19998;-80
2022/06/16 07:19:53;;;;;;;;;;;23.30;94.40;;;;;;4999976;28;20008;-81
2022/06/16 07:22:19;;;;;;;;;;;23.30;94.80;;;;;;4999949;28;19922;-81
2022/06/16 07:24:48;;;;;;;;;;;23.30;95.00;;;;;;5001318;28;20016;-81
2022/06/16 07:27:16;;;;;;;;;;;23.40;95.20;;;;;;5002139;28;19922;-82
2022/06/16 07:29:42;;;;;;;;;;;23.40;95.50;;;;;;5003766;28;19928;-81
2022/06/16 07:32:09;;;;;;;;;;;23.40;95.80;;;;;;5000296;28;19928;-80
2022/06/16 07:34:35;;;;;;;;;;;23.40;96.00;;;;;;5000252;28;19956;-83
2022/06/16 07:37:03;;;;;;;;;;;23.50;96.30;;;;;;5001424;28;19956;-81
2022/06/16 07:39:29;;;;;;;;;;;23.50;96.40;;;;;;5000444;28;19922;-82
2022/06/16 07:41:57;;;;;;;;;;;23.50;96.60;;;;;;5000422;28;20012;-82
2022/06/16 07:44:24;;;;;;;;;;;23.50;96.80;;;;;;5000713;28;19921;-81
2022/06/16 07:46:51;;;;;;;;;;;23.50;97.00;;;;;;5001605;28;19972;-83
2022/06/16 07:49:22;;;;;;;;;;;23.50;97.00;;;;;;5000191;28;20002;-83
2022/06/16 07:51:49;;;;;;;;;;;23.50;97.30;;;;;;5000252;28;19925;-83
2022/06/16 07:54:17;;;;;;;;;;;23.50;97.50;;;;;;5001306;28;19964;-84
2022/06/16 07:56:44;;;;;;;;;;;23.50;97.70;;;;;;5000905;28;19922;-81
2022/06/16 07:59:12;;;;;;;;;;;23.50;97.90;;;;;;5000589;28;20004;-82
2022/06/16 08:01:39;;;;;;;;;;;23.50;98.20;;;;;;5000648;28;19932;-81
2022/06/16 08:04:06;;;;;;;;;;;23.50;98.40;;;;;;4998786;28;20015;-81
2022/06/16 08:06:34;;;;;;;;;;;23.50;98.50;;;;;;4999484;28;19929;-86
2022/06/16 08:09:00;;;;;;;;;;;23.50;98.70;;;;;;4999679;28;19961;-85
2022/06/16 08:14:12;;;;;;;;;;;23.50;99.00;;;;;;5001210;28;19940;-83
2022/06/16 08:16:39;;;;;;;;;;;23.50;99.30;;;;;;5000862;28;19921;-85
2022/06/16 08:19:06;;;;;;;;;;;23.50;99.40;;;;;;5000923;28;20017;-85
2022/06/16 08:21:33;;;;;;;;;;;23.50;99.60;;;;;;5001104;28;19977;-83
2022/06/16 08:23:59;;;;;;;;;;;23.50;99.80;;;;;;5000633;28;19921;-84
2022/06/16 08:26:26;;;;;;;;;;;23.50;99.90;;;;;;5001227;28;19989;-81
2022/06/16 08:28:54;;;;;;;;;;;23.60;99.90;;;;;;5000568;28;20343;-84
2022/06/16 08:31:23;;;;;;;;;;;23.60;99.90;;;;;;4999692;28;20444;-85
2022/06/16 15:58:33;;;;;;;;;;;23.80;93.40;;;;;;5787117;23;19922;-85
2022/06/16 16:01:00;;;;;;;;;;;23.70;93.30;;;;;;5009525;28;20005;-85
2022/06/16 16:03:28;;;;;;;;;;;23.80;93.30;;;;;;5007981;28;20292;-85
2022/06/16 16:05:56;;;;;;;;;;;23.70;93.30;;;;;;5005326;28;20336;-85
2022/06/16 16:08:25;;;;;;;;;;;23.70;93.20;;;;;;5001815;28;20280;-83
2022/06/16 16:10:53;;;;;;;;;;;23.70;93.50;;;;;;5002398;28;19922;-84
2022/06/16 16:13:19;;;;;;;;;;;23.80;93.30;;;;;;4999707;28;20020;-86
2022/06/16 16:16:00;;;;;;;;;;;23.80;93.40;;;;;;4997232;28;19922;-86
2022/06/16 16:18:27;;;;;;;;;;;23.80;93.50;;;;;;4998183;28;19922;-85
2022/06/16 16:20:55;;;;;;;;;;;23.80;93.50;;;;;;4998533;28;19928;-82
2022/06/16 16:23:24;;;;;;;;;;;23.80;93.60;;;;;;4997764;28;19973;-83
2022/06/16 16:25:52;;;;;;;;;;;23.80;93.60;;;;;;4998975;28;19922;-81
2022/06/16 16:28:20;;;;;;;;;;;23.80;93.60;;;;;;4998632;28;20008;-87
2022/06/16 16:30:48;;;;;;;;;;;23.80;93.60;;;;;;4998721;28;20028;-83
2022/06/16 16:33:23;;;;;;;;;;;23.80;93.60;;;;;;4998566;28;19977;-83
2022/06/16 16:36:11;;;;;;;;;;;23.80;93.50;;;;;;4998574;28;19928;-84
2022/06/16 16:38:39;;;;;;;;;;;23.80;93.50;;;;;;4994065;28;20025;-84
2022/06/16 16:43:59;;;;;;;;;;;23.80;93.40;;;;;;5001624;28;19925;-84
2022/06/16 16:46:29;;;;;;;;;;;23.80;93.30;;;;;;5001429;28;19964;-84
2022/06/16 16:48:59;;;;;;;;;;;23.80;93.20;;;;;;5000508;28;19972;-84
2022/06/16 16:51:26;;;;;;;;;;;23.80;93.10;;;;;;4999625;28;19929;-84
2022/06/16 16:53:56;;;;;;;;;;;23.70;92.90;;;;;;4998352;28;20008;-84
2022/06/16 16:56:31;;;;;;;;;;;23.70;92.80;;;;;;5001210;28;19928;-84
2022/06/16 16:59:00;;;;;;;;;;;23.70;92.70;;;;;;4998873;28;20008;-84
2022/06/16 17:01:29;;;;;;;;;;;23.70;92.60;;;;;;4997824;28;19964;-84
2022/06/16 17:03:56;;;;;;;;;;;23.70;92.60;;;;;;5000425;28;19981;-85
2022/06/16 17:06:24;;;;;;;;;;;23.70;92.70;;;;;;5001646;28;20021;-86
2022/06/16 17:08:51;;;;;;;;;;;23.70;92.60;;;;;;4999309;28;19928;-88
2022/06/16 17:14:04;;;;;;;;;;;23.80;92.60;;;;;;4999946;28;19924;-85
2022/06/16 17:16:31;;;;;;;;;;;23.80;92.50;;;;;;4999885;28;19922;-81
2022/06/16 17:18:58;;;;;;;;;;;23.80;92.70;;;;;;4998538;28;20273;-88
2022/06/16 17:21:27;;;;;;;;;;;23.80;92.70;;;;;;4996113;28;19922;-88
2022/06/16 17:23:54;;;;;;;;;;;23.80;92.80;;;;;;4996207;28;19925;-89
2022/06/16 17:26:26;;;;;;;;;;;23.80;92.80;;;;;;4997429;28;19945;-86
2022/06/16 17:28:52;;;;;;;;;;;23.80;92.70;;;;;;4998962;28;19977;-86
2022/06/16 17:31:19;;;;;;;;;;;23.80;92.60;;;;;;4999280;28;20316;-86
2022/06/16 17:33:46;;;;;;;;;;;23.80;92.50;;;;;;4998782;28;19921;-85
2022/06/16 17:36:15;;;;;;;;;;;23.80;92.50;;;;;;4999542;28;20373;-84
2022/06/16 17:38:44;;;;;;;;;;;23.80;92.30;;;;;;4999762;28;19928;-84
2022/06/16 17:41:13;;;;;;;;;;;23.80;92.20;;;;;;4997564;28;20004;-83
2022/06/16 17:43:39;;;;;;;;;;;23.80;92.20;;;;;;4997726;28;19926;-81
2022/06/16 17:46:08;;;;;;;;;;;23.80;92.20;;;;;;4997703;28;20020;-82
2022/06/16 17:48:35;;;;;;;;;;;23.80;92.20;;;;;;5003046;28;19921;-82
2022/06/16 17:51:02;;;;;;;;;;;23.80;92.20;;;;;;5014271;28;19925;-82
2022/06/16 18:01:43;;;;;;;;;;;23.70;91.70;;;;;;5009831;28;19925;-83
2022/06/16 18:04:09;;;;;;;;;;;23.70;91.70;;;;;;5007688;28;20413;-83
2022/06/16 18:06:37;;;;;;;;;;;23.70;91.50;;;;;;5007033;28;20408;-83
2022/06/16 18:09:05;;;;;;;;;;;23.70;91.50;;;;;;5007177;28;19929;-83
2022/06/16 18:11:33;;;;;;;;;;;23.70;91.40;;;;;;5008841;28;19964;-83
2022/06/16 18:14:00;;;;;;;;;;;23.70;91.30;;;;;;5008696;28;19995;-83
2022/06/16 18:16:27;;;;;;;;;;;23.70;91.20;;;;;;5004013;28;19961;-84
2022/06/16 18:18:54;;;;;;;;;;;23.70;91.10;;;;;;5001154;28;19922;-83
2022/06/16 18:21:24;;;;;;;;;;;23.70;90.90;;;;;;5002477;28;19922;-83
2022/06/16 18:23:51;;;;;;;;;;;23.70;90.80;;;;;;5001520;28;20391;-84
2022/06/16 18:26:19;;;;;;;;;;;23.70;90.70;;;;;;5001369;28;20008;-85
2022/06/16 18:28:49;;;;;;;;;;;23.70;90.60;;;;;;5000888;28;19921;-84
2022/06/16 18:31:16;;;;;;;;;;;23.70;90.50;;;;;;5000447;28;20399;-84
2022/06/16 18:33:44;;;;;;;;;;;23.70;90.40;;;;;;4999651;28;19922;-84
2022/06/16 18:36:11;;;;;;;;;;;23.60;90.20;;;;;;4999463;28;19925;-85
2022/06/16 18:38:38;;;;;;;;;;;23.70;90.20;;;;;;4999444;28;20012;-83
2022/06/16 18:41:05;;;;;;;;;;;23.70;90.00;;;;;;4999922;28;19981;-85
2022/06/16 18:43:35;;;;;;;;;;;23.70;89.80;;;;;;4999070;28;20338;-84
2022/06/16 18:46:03;;;;;;;;;;;23.60;89.50;;;;;;4999396;28;19964;-84
2022/06/16 18:48:30;;;;;;;;;;;23.60;89.10;;;;;;5003260;28;20389;-84
2022/06/16 18:50:58;;;;;;;;;;;23.60;89.10;;;;;;5004509;28;19922;-85
2022/06/16 18:53:26;;;;;;;;;;;23.60;89.10;;;;;;5004394;28;19921;-84
2022/06/16 18:55:53;;;;;;;;;;;23.60;88.50;;;;;;5004496;28;19968;-85
2022/06/16 18:58:20;;;;;;;;;;;23.60;88.10;;;;;;5002479;28;19928;-83
2022/06/16 19:00:48;;;;;;;;;;;23.60;87.90;;;;;;5002349;28;19922;-83
2022/06/16 19:03:17;;;;;;;;;;;23.60;87.60;;;;;;5001047;28;20296;-84
2022/06/16 19:05:45;;;;;;;;;;;23.60;87.30;;;;;;5001783;28;19928;-84
2022/06/16 19:08:12;;;;;;;;;;;23.60;87.00;;;;;;5001865;28;19928;-83
2022/06/16 19:10:38;;;;;;;;;;;23.60;86.90;;;;;;5001282;28;19928;-84
2022/06/16 19:13:05;;;;;;;;;;;23.60;86.80;;;;;;5001453;28;19976;-84
2022/06/16 19:15:34;;;;;;;;;;;23.60;86.60;;;;;;5001748;28;20386;-84
2022/06/16 19:18:02;;;;;;;;;;;23.60;86.40;;;;;;5001303;28;19965;-83
2022/06/16 19:20:32;;;;;;;;;;;23.60;86.20;;;;;;5001091;28;20289;-83
2022/06/16 19:23:01;;;;;;;;;;;23.60;86.00;;;;;;5001156;28;19976;-83
2022/06/16 19:25:28;;;;;;;;;;;23.60;85.90;;;;;;5000332;28;20004;-82
2022/06/16 19:27:56;;;;;;;;;;;23.60;85.70;;;;;;5001925;28;20332;-86
2022/06/16 19:30:23;;;;;;;;;;;23.60;85.50;;;;;;4999189;28;19928;-87
2022/06/16 19:32:50;;;;;;;;;;;23.60;85.20;;;;;;5000936;28;20337;-83
2022/06/16 19:35:17;;;;;;;;;;;23.60;85.20;;;;;;5001862;28;19922;-84
2022/06/16 19:37:48;;;;;;;;;;;23.60;85.10;;;;;;5000883;28;19929;-82
2022/06/16 19:40:15;;;;;;;;;;;23.60;85.00;;;;;;5000452;28;20404;-82
2022/06/16 19:42:44;;;;;;;;;;;23.60;84.90;;;;;;5001810;28;19922;-83
2022/06/16 19:50:50;;;;;;;;;;;23.60;84.40;;;;;;5000653;28;19928;-82
2022/06/16 19:53:22;;;;;;;;;;;23.60;84.30;;;;;;5001464;28;20365;-83
2022/06/16 19:55:49;;;;;;;;;;;23.60;84.20;;;;;;5001974;28;19970;-83
2022/06/16 19:58:16;;;;;;;;;;;23.60;84.10;;;;;;5001376;28;20004;-82
2022/06/16 20:00:47;;;;;;;;;;;23.60;84.00;;;;;;5001070;28;19921;-83
2022/06/16 20:03:14;;;;;;;;;;;23.60;83.90;;;;;;5001777;28;19922;-83
2022/06/16 20:05:40;;;;;;;;;;;23.60;83.70;;;;;;5001441;28;20009;-82
2022/06/16 20:08:08;;;;;;;;;;;23.60;83.50;;;;;;5001958;28;19922;-87
2022/06/16 20:10:38;;;;;;;;;;;23.60;83.40;;;;;;5000533;28;19930;-87
2022/06/16 20:13:05;;;;;;;;;;;23.60;83.40;;;;;;4997704;28;20432;-87
2022/06/16 20:15:32;;;;;;;;;;;23.60;83.40;;;;;;4998828;28;20408;-87
2022/06/16 20:17:58;;;;;;;;;;;23.60;83.40;;;;;;5001592;28;19922;-87
2022/06/16 20:20:27;;;;;;;;;;;23.60;83.40;;;;;;5000648;28;20016;-87
2022/06/16 20:22:54;;;;;;;;;;;23.60;83.40;;;;;;4999650;28;19928;-85
2022/06/16 20:25:21;;;;;;;;;;;23.60;83.40;;;;;;5003900;28;20016;-85
2022/06/16 20:27:50;;;;;;;;;;;23.60;83.40;;;;;;5005487;28;19996;-85
2022/06/16 20:30:18;;;;;;;;;;;23.60;83.60;;;;;;5004841;28;19922;-85
2022/06/16 20:32:45;;;;;;;;;;;23.60;83.70;;;;;;5005502;28;20389;-85
2022/06/16 20:35:13;;;;;;;;;;;23.60;83.90;;;;;;5004010;28;20009;-85
2022/06/16 20:37:40;;;;;;;;;;;23.70;84.00;;;;;;5003643;28;20040;-85
2022/06/16 20:40:08;;;;;;;;;;;23.70;84.10;;;;;;5003582;28;19989;-85
2022/06/16 20:42:35;;;;;;;;;;;23.70;84.20;;;;;;5002968;28;20460;-85
2022/06/16 20:45:04;;;;;;;;;;;23.70;84.30;;;;;;5002072;28;19932;-84
2022/06/16 20:47:31;;;;;;;;;;;23.70;84.40;;;;;;5003366;28;20346;-84
2022/06/16 20:49:58;;;;;;;;;;;23.70;84.50;;;;;;5000579;28;19922;-84
2022/06/16 20:52:26;;;;;;;;;;;23.70;84.60;;;;;;5001776;28;19922;-84
2022/06/16 20:54:52;;;;;;;;;;;23.70;84.70;;;;;;5002729;28;19972;-85
2022/06/16 21:02:50;;;;;;;;;;;23.70;84.90;;;;;;5002561;28;20402;-84
2022/06/16 21:05:18;;;;;;;;;;;23.70;85.00;;;;;;5002879;28;19921;-84
2022/06/16 21:07:45;;;;;;;;;;;23.70;85.10;;;;;;5003009;28;20008;-85
2022/06/16 21:10:16;;;;;;;;;;;23.70;85.20;;;;;;5003146;28;20008;-85
2022/06/16 21:12:44;;;;;;;;;;;23.70;85.30;;;;;;5005074;28;20020;-85
2022/06/16 21:15:13;;;;;;;;;;;23.70;85.30;;;;;;5007951;28;19933;-84
2022/06/16 21:17:40;;;;;;;;;;;23.70;85.50;;;;;;5009093;28;19989;-85
2022/06/16 21:20:08;;;;;;;;;;;23.70;85.60;;;;;;5005088;28;20018;-84
2022/06/16 21:22:37;;;;;;;;;;;23.70;85.60;;;;;;5002381;28;20385;-84
2022/06/16 21:25:08;;;;;;;;;;;23.70;85.70;;;;;;5002363;28;20377;-85
2022/06/16 21:27:35;;;;;;;;;;;23.70;85.80;;;;;;5003924;28;19926;-85
2022/06/16 21:30:03;;;;;;;;;;;23.70;85.90;;;;;;5001468;28;20050;-88
2022/06/16 21:32:31;;;;;;;;;;;23.70;86.00;;;;;;4999610;28;19922;-85
2022/06/16 21:35:00;;;;;;;;;;;23.70;86.10;;;;;;5002350;28;20021;-85
2022/06/16 21:37:29;;;;;;;;;;;23.70;86.20;;;;;;5002355;28;20286;-85
2022/06/16 21:39:56;;;;;;;;;;;23.70;86.30;;;;;;5004923;28;19928;-85
2022/06/16 21:42:24;;;;;;;;;;;23.70;86.50;;;;;;5004330;28;20017;-85
2022/06/16 21:44:50;;;;;;;;;;;23.70;86.60;;;;;;5004532;28;20020;-85
2022/06/16 21:47:19;;;;;;;;;;;23.70;86.70;;;;;;5005366;28;19922;-85
2022/06/16 21:49:52;;;;;;;;;;;23.70;86.80;;;;;;5005952;28;19925;-85
2022/06/16 21:52:19;;;;;;;;;;;23.70;86.90;;;;;;5004885;28;19929;-85
2022/06/16 21:54:46;;;;;;;;;;;23.70;87.10;;;;;;5005444;28;20420;-85
2022/06/16 21:57:13;;;;;;;;;;;23.70;87.20;;;;;;5003729;28;19927;-85
2022/06/16 21:59:40;;;;;;;;;;;23.70;87.30;;;;;;5005031;28;19928;-85
2022/06/16 22:02:15;;;;;;;;;;;23.70;87.40;;;;;;5005725;28;19980;-85
2022/06/16 22:04:42;;;;;;;;;;;23.70;87.60;;;;;;5005437;28;19985;-85
2022/06/16 22:07:10;;;;;;;;;;;23.70;87.70;;;;;;5005978;28;20360;-85
2022/06/16 22:09:37;;;;;;;;;;;23.70;87.90;;;;;;5005312;28;20000;-84
2022/06/16 22:12:21;;;;;;;;;;;23.70;88.00;;;;;;5005183;28;20008;-84
2022/06/16 22:17:33;;;;;;;;;;;23.70;88.40;;;;;;5003554;28;19972;-86
2022/06/16 22:20:00;;;;;;;;;;;23.70;88.70;;;;;;5002911;28;19926;-83
2022/06/16 22:22:28;;;;;;;;;;;23.70;89.10;;;;;;5002480;28;19922;-85
2022/06/16 22:24:55;;;;;;;;;;;23.70;89.10;;;;;;5000141;28;19922;-84
2022/06/16 22:27:22;;;;;;;;;;;23.70;89.10;;;;;;5000812;28;19943;-84
2022/06/16 22:29:49;;;;;;;;;;;23.70;89.20;;;;;;5000488;28;19960;-84
2022/06/16 22:32:17;;;;;;;;;;;23.70;89.50;;;;;;5001319;28;19957;-85
2022/06/16 22:34:44;;;;;;;;;;;23.70;89.80;;;;;;5002184;28;20103;-85
2022/06/16 22:37:13;;;;;;;;;;;23.70;90.00;;;;;;5000902;28;20020;-83
